Los Sarmientos, Argentina
Current Conditions -  °F | °C
As of 1:00 AM on Wednesday 22 Oct 2014 (Local Time) from SANT Reporting Station
Clear Clear  
Wind Chill: 72°   Ceiling: Unl
Heat Index: 72°   Visibility: 5mi
Dew Point: 63°   Wind: 7mph
Humidity: 73%   Direction: 360°N
Pressure: 29.94"   Gusts: NA
Location:  27.4°S, 65.68°W
Report Text: SANT 220400Z 36006KT 8000 NSC 22/17 Q1014
Loading
Personal Weather Stations






























Interactive Weather Map New forecast layout! Learn more

10-Day Weather Forecast

Advertisements
Track Severe Weather on mobile